Terminal Aerodrome Forecast
Issued by NWS

Home | Current Version | Previous Version | Text Only | Print | Product List | Glossary On
Versions: 1 2 3 4 5 6 7 8 9 10 11 12 13 14
847
FTUS46 KMTR 292320
TAFSJC
TAF
KSJC 292320Z 3000/3024 30010KT P6SM SCT200
     FM300400 30005KT P6SM SKC
     FM301000 14003KT P6SM BKN015
     FM301700 VRB03KT P6SM SCT015
     FM301900 29010KT P6SM SKC=

USA.gov is the U.S. government's official web portal to all federal, state and local government web resources and services.